createdAt,value
2022-12-25T00:01:32.494Z,100273.97
2022-12-25T00:06:33.852Z,100280.09
2022-12-25T00:11:35.310Z,100253.22
2022-12-25T00:16:36.650Z,100260.25
2022-12-25T00:21:38.045Z,100213.81
2022-12-25T00:26:39.344Z,100230.97
2022-12-25T00:31:40.802Z,100232.31
2022-12-25T00:36:42.471Z,100234.91
2022-12-25T00:42:02.330Z,100242.63
2022-12-25T00:47:04.291Z,100246.50
2022-12-25T00:52:06.040Z,100263.59
2022-12-25T00:57:07.420Z,100262.00
2022-12-25T01:02:24.260Z,100251.13
2022-12-25T01:07:26.805Z,100249.28
2022-12-25T01:12:28.743Z,100241.31
2022-12-25T01:17:30.119Z,100248.22
2022-12-25T01:22:31.502Z,100242.88
2022-12-25T01:27:33.705Z,100269.50
2022-12-25T01:32:35.011Z,100268.16
2022-12-25T01:37:36.339Z,100272.78
2022-12-25T01:42:37.882Z,100254.41
2022-12-25T01:47:39.284Z,100268.78
2022-12-25T01:52:41.237Z,100245.28
2022-12-25T01:57:43.658Z,100278.09
2022-12-25T02:02:45.752Z,100252.47
2022-12-25T02:07:48.944Z,100240.25
2022-12-25T02:12:51.165Z,100260.34
2022-12-25T02:18:12.033Z,100251.50
2022-12-25T02:23:42.117Z,100242.66
2022-12-25T02:28:52.126Z,100244.25
2022-12-25T02:34:13.931Z,100239.63
2022-12-25T02:39:54.835Z,100258.53
2022-12-25T02:45:14.719Z,100253.28
2022-12-25T02:50:35.316Z,100242.63
2022-12-25T02:55:58.930Z,100234.66
2022-12-25T03:01:27.239Z,100223.31
2022-12-25T03:06:44.585Z,100221.59
2022-12-25T03:11:47.965Z,100212.56
2022-12-25T03:16:54.083Z,100228.63
2022-12-25T03:22:14.932Z,100237.56
2022-12-25T03:27:16.446Z,100226.34
2022-12-25T03:32:20.877Z,100252.13
2022-12-25T03:37:40.588Z,100248.09
2022-12-25T03:43:05.668Z,100232.25
2022-12-25T03:48:13.372Z,100233.00
2022-12-25T03:53:48.503Z,100218.97
2022-12-25T03:59:10.188Z,100221.63
2022-12-25T04:04:30.268Z,100204.44
2022-12-25T04:09:50.078Z,100195.50
2022-12-25T04:15:09.867Z,100196.69
2022-12-25T04:20:29.904Z,100207.81
2022-12-25T04:25:49.633Z,100200.59
2022-12-25T04:31:09.836Z,100200.34
2022-12-25T04:36:12.398Z,100180.97
2022-12-25T04:41:14.682Z,100206.38
2022-12-25T04:46:16.183Z,100187.25
2022-12-25T04:51:22.746Z,100197.66
2022-12-25T04:56:24.067Z,100190.03
2022-12-25T05:01:25.581Z,100198.41
2022-12-25T05:06:27.572Z,100190.41
2022-12-25T05:11:28.934Z,100193.44
2022-12-25T05:16:30.442Z,100194.53
2022-12-25T05:21:31.954Z,100203.72
2022-12-25T05:26:33.376Z,100195.03
2022-12-25T05:31:34.835Z,100204.09
2022-12-25T05:36:37.001Z,100186.53
2022-12-25T05:41:38.433Z,100197.91
2022-12-25T05:46:39.977Z,100200.81
2022-12-25T05:51:41.420Z,100182.94
2022-12-25T05:56:42.796Z,100188.25
2022-12-25T06:01:44.256Z,100192.09
2022-12-25T06:06:45.669Z,100186.44
2022-12-25T06:11:47.176Z,100184.16
2022-12-25T06:16:52.211Z,100167.22
2022-12-25T06:21:54.570Z,100177.13
2022-12-25T06:26:56.007Z,100166.53
2022-12-25T06:31:58.807Z,100159.75
2022-12-25T06:37:00.226Z,100146.06
2022-12-25T06:42:01.723Z,100152.25
2022-12-25T06:47:03.130Z,100148.38
2022-12-25T06:52:04.617Z,100146.94
2022-12-25T06:57:05.989Z,100155.75
2022-12-25T07:02:18.657Z,100150.31
2022-12-25T07:07:21.426Z,100159.25
2022-12-25T07:12:23.794Z,100167.22
2022-12-25T07:17:25.272Z,100152.97
2022-12-25T07:22:28.960Z,100139.19
2022-12-25T07:27:30.474Z,100160.72
2022-12-25T07:32:32.064Z,100160.72
2022-12-25T07:37:33.430Z,100144.25
2022-12-25T07:42:34.826Z,100146.44
2022-12-25T07:47:36.191Z,100125.19
2022-12-25T07:52:43.220Z,100138.94
2022-12-25T07:57:45.107Z,100146.56
2022-12-25T08:02:50.741Z,100149.47
2022-12-25T08:07:57.618Z,100141.38
2022-12-25T08:12:59.459Z,100148.59
2022-12-25T08:18:00.761Z,100121.63
2022-12-25T08:23:02.417Z,100113.03
2022-12-25T08:28:04.023Z,100089.69
2022-12-25T08:33:05.519Z,100087.88
2022-12-25T08:38:06.896Z,100105.03
2022-12-25T08:43:08.246Z,100121.25
2022-12-25T08:48:10.634Z,100113.50
2022-12-25T08:53:11.923Z,100081.56
2022-12-25T08:58:14.683Z,100069.44
2022-12-25T09:03:16.117Z,100087.16
2022-12-25T09:08:17.586Z,100102.38
2022-12-25T09:13:18.890Z,100122.22
2022-12-25T09:18:20.240Z,100111.31
2022-12-25T09:23:21.626Z,100131.84
2022-12-25T09:28:23.122Z,100125.53
2022-12-25T09:33:25.029Z,100113.94
2022-12-25T09:38:27.106Z,100115.63
2022-12-25T09:43:33.215Z,100115.63
2022-12-25T09:48:39.974Z,100104.72
2022-12-25T09:53:55.251Z,100094.91
2022-12-25T09:58:56.749Z,100099.72
2022-12-25T10:04:10.070Z,100093.31
2022-12-25T10:09:35.323Z,100069.78
2022-12-25T10:14:53.751Z,100017.06
2022-12-25T10:20:18.354Z,100029.00
2022-12-25T10:25:24.566Z,100027.28
2022-12-25T10:30:28.198Z,100016.78
2022-12-25T10:35:31.414Z,100033.59
2022-12-25T10:41:04.025Z,100048.13
2022-12-25T10:46:14.484Z,100035.44
2022-12-25T10:51:36.847Z,100015.22
2022-12-25T10:56:38.258Z,99991.97
2022-12-25T11:01:39.778Z,99995.91
2022-12-25T11:06:42.590Z,100012.19
2022-12-25T11:11:47.307Z,99996.78
2022-12-25T11:16:50.363Z,100005.25
2022-12-25T11:21:57.510Z,99999.78
2022-12-25T11:27:02.000Z,99993.72
2022-12-25T11:32:05.591Z,99984.44
2022-12-25T11:37:15.667Z,99986.69
2022-12-25T11:42:26.313Z,99991.75
2022-12-25T11:47:44.025Z,99966.63
2022-12-25T11:52:47.304Z,99956.09
2022-12-25T11:57:55.069Z,99957.81
2022-12-25T12:03:02.092Z,99938.13
2022-12-25T12:08:05.501Z,99929.63
2022-12-25T12:13:44.346Z,99907.94
2022-12-25T12:18:50.242Z,99867.56
2022-12-25T12:24:13.708Z,99862.81
2022-12-25T12:29:27.220Z,99886.94
2022-12-25T12:34:37.143Z,99906.88
2022-12-25T12:39:40.414Z,99902.84
2022-12-25T12:44:42.429Z,99886.81
2022-12-25T12:49:43.777Z,99873.72
2022-12-25T12:55:12.929Z,99881.00
2022-12-25T13:00:14.269Z,99888.41
2022-12-25T13:05:15.698Z,99888.31
2022-12-25T13:10:25.659Z,99876.28
2022-12-25T13:15:31.633Z,99861.31
2022-12-25T13:20:42.043Z,99861.41
2022-12-25T13:25:51.863Z,99876.53
2022-12-25T13:30:53.325Z,99885.16
2022-12-25T13:35:55.121Z,99881.34
2022-12-25T13:41:16.845Z,99870.88
2022-12-25T13:46:26.210Z,99863.72
2022-12-25T13:51:28.405Z,99838.19
2022-12-25T13:56:30.571Z,99833.72
2022-12-25T14:01:32.153Z,99844.69
2022-12-25T14:06:33.778Z,99854.81
2022-12-25T14:11:36.036Z,99833.47
2022-12-25T14:16:37.867Z,99844.69
2022-12-25T14:21:49.112Z,99844.69
2022-12-25T14:26:58.322Z,99851.41
2022-12-25T14:32:04.430Z,99843.56
2022-12-25T14:37:13.071Z,99834.00
2022-12-25T14:42:22.554Z,99842.72
2022-12-25T14:47:24.537Z,99851.41
2022-12-25T14:52:29.630Z,99860.81
2022-12-25T14:57:38.717Z,99855.47
2022-12-25T15:02:46.058Z,99858.69
2022-12-25T15:07:58.798Z,99835.16
2022-12-25T15:13:01.767Z,99824.75
2022-12-25T15:18:04.768Z,99834.16
2022-12-25T15:23:21.903Z,99840.31
2022-12-25T15:28:23.581Z,99833.59
2022-12-25T15:33:24.940Z,99831.19
2022-12-25T15:38:26.300Z,99844.97
2022-12-25T15:43:42.897Z,99829.63
2022-12-25T15:48:44.319Z,99836.81
2022-12-25T15:53:45.701Z,99830.09
2022-12-25T15:58:47.007Z,99851.41
2022-12-25T16:03:48.899Z,99834.59
2022-12-25T16:08:50.597Z,99854.78
2022-12-25T16:13:51.966Z,99858.97
2022-12-25T16:18:53.282Z,99846.66
2022-12-25T16:23:54.702Z,99828.28
2022-12-25T16:28:56.004Z,99822.78
2022-12-25T16:33:57.488Z,99826.16
2022-12-25T16:38:59.026Z,99810.03
2022-12-25T16:44:08.894Z,99813.81
2022-12-25T16:49:10.303Z,99803.84
2022-12-25T16:54:11.639Z,99826.16
2022-12-25T16:59:12.974Z,99820.25
2022-12-25T17:04:14.462Z,99819.97
2022-12-25T17:09:15.852Z,99840.75
2022-12-25T17:14:17.251Z,99862.91
2022-12-25T17:19:20.863Z,99858.84
2022-12-25T17:24:22.361Z,99846.34
2022-12-25T17:29:24.974Z,99828.78
2022-12-25T17:34:26.280Z,99864.16
2022-12-25T17:39:27.683Z,99855.03
2022-12-25T17:44:29.075Z,99854.50
2022-12-25T17:49:30.546Z,99831.44
2022-12-25T17:54:31.924Z,99811.28
2022-12-25T17:59:33.417Z,99814.22
2022-12-25T18:04:34.840Z,99821.78
2022-12-25T18:09:36.363Z,99819.13
2022-12-25T18:14:37.645Z,99831.19
2022-12-25T18:19:39.423Z,99818.44
2022-12-25T18:24:40.846Z,99819.84
2022-12-25T18:29:42.204Z,99825.59
2022-12-25T18:34:43.540Z,99817.75
2022-12-25T18:39:44.957Z,99794.88
2022-12-25T18:44:46.358Z,99796.41
2022-12-25T18:49:48.445Z,99786.72
2022-12-25T18:54:49.962Z,99795.72
2022-12-25T18:59:51.423Z,99809.06
2022-12-25T19:04:53.032Z,99807.22
2022-12-25T19:09:54.476Z,99789.13
2022-12-25T19:14:55.886Z,99802.59
2022-12-25T19:19:57.261Z,99791.09
2022-12-25T19:24:58.709Z,99797.97
2022-12-25T19:30:00.255Z,99764.28
2022-12-25T19:35:04.395Z,99795.16
2022-12-25T19:40:06.593Z,99800.75
2022-12-25T19:45:08.580Z,99804.53
2022-12-25T19:50:10.166Z,99820.00
2022-12-25T19:55:11.609Z,99813.09
2022-12-25T20:00:13.346Z,99811.84
2022-12-25T20:05:14.894Z,99803.16
2022-12-25T20:10:16.323Z,99802.72
2022-12-25T20:15:17.671Z,99792.78
2022-12-25T20:20:18.967Z,99797.13
2022-12-25T20:25:20.363Z,99814.09
2022-12-25T20:30:21.704Z,99813.38
2022-12-25T20:35:23.378Z,99796.25
2022-12-25T20:40:24.787Z,99801.72
2022-12-25T20:45:26.174Z,99823.91
2022-12-25T20:50:27.543Z,99816.50
2022-12-25T20:55:28.915Z,99804.81
2022-12-25T21:00:30.293Z,99819.56
2022-12-25T21:05:34.135Z,99834.84
2022-12-25T21:10:35.478Z,99842.84
2022-12-25T21:15:37.327Z,99849.16
2022-12-25T21:20:38.767Z,99848.19
2022-12-25T21:25:40.108Z,99825.03
2022-12-25T21:30:42.342Z,99848.88
2022-12-25T21:35:43.735Z,99854.47
2022-12-25T21:40:45.068Z,99853.94
2022-12-25T21:45:46.484Z,99851.97
2022-12-25T21:51:06.651Z,99866.97
2022-12-25T21:56:08.023Z,99884.09
2022-12-25T22:01:10.943Z,99874.84
2022-12-25T22:06:48.272Z,99874.09
2022-12-25T22:12:08.117Z,99878.88
2022-12-25T22:17:28.693Z,99869.34
2022-12-25T22:22:30.841Z,99871.88
2022-12-25T22:27:34.214Z,99877.78
2022-12-25T22:32:35.794Z,99873.56
2022-12-25T22:37:37.218Z,99866.56
2022-12-25T22:42:38.647Z,99870.78
2022-12-25T22:47:40.342Z,99882.53
2022-12-25T22:52:42.654Z,99877.22
2022-12-25T22:57:44.010Z,99881.72
2022-12-25T23:02:45.517Z,99868.94
2022-12-25T23:07:46.941Z,99882.00
2022-12-25T23:13:06.795Z,99896.31
2022-12-25T23:18:27.514Z,99890.41
2022-12-25T23:23:47.276Z,99889.69
2022-12-25T23:29:07.404Z,99887.91
2022-12-25T23:34:09.873Z,99889.31
2022-12-25T23:39:11.453Z,99875.81
2022-12-25T23:44:13.589Z,99882.28
2022-12-25T23:49:15.166Z,99887.34
2022-12-25T23:54:20.124Z,99869.94
2022-12-25T23:59:21.561Z,99884.69
